Time;durP1;ratioP1;P1;durP2;ratioP2;P2;SDS_P1;SDS_P2;PMS_P1;PMS_P2;Temp;Humidity;BMP_temperature;BMP_pressure;BME280_temperature;BME280_humidity;BME280_pressure;Samples;Min_cycle;Max_cycle;Signal;HPM_P1;HPM_P2
2022/12/26 00:01:41;;;;;;;8.10;3.70;;;;;;;-144.22;100.00;60274.75;6289140;28;20227;-67
2022/12/26 00:04:43;;;;;;;6.03;4.73;;;;;;;-144.22;100.00;60274.75;6273224;28;20597;-67
2022/12/26 00:07:53;;;;;;;4.67;3.77;;;;;;;-144.22;100.00;60274.75;6292618;28;20313;-68
2022/12/26 00:10:55;;;;;;;5.03;4.10;;;;;;;-144.22;100.00;60274.75;6289439;28;20698;-67
2022/12/26 00:14:01;;;;;;;5.30;4.17;;;;;;;-144.22;100.00;60274.75;6271491;28;20225;-67
2022/12/26 00:17:03;;;;;;;5.20;3.70;;;;;;;-144.22;100.00;60274.75;6275347;28;20733;-67
2022/12/26 00:20:05;;;;;;;4.23;3.40;;;;;;;-144.22;100.00;60274.75;6288797;28;20238;-67
2022/12/26 00:23:07;;;;;;;4.50;3.10;;;;;;;-144.22;100.00;60274.75;6288653;28;20232;-67
2022/12/26 00:26:14;;;;;;;5.93;3.53;;;;;;;-144.22;100.00;60274.75;6287894;28;20268;-67
2022/12/26 00:29:16;;;;;;;3.83;3.33;;;;;;;-144.22;100.00;60274.75;6273667;28;20239;-69
2022/12/26 00:32:18;;;;;;;4.50;2.97;;;;;;;-144.22;100.00;60274.75;6294553;28;20309;-67
2022/12/26 00:35:20;;;;;;;4.47;3.57;;;;;;;-144.22;100.00;60274.75;6291767;28;20594;-67
2022/12/26 00:38:22;;;;;;;5.47;3.33;;;;;;;-144.22;100.00;60274.75;6293046;28;20237;-67
2022/12/26 00:41:24;;;;;;;5.80;3.77;;;;;;;-144.22;100.00;60274.75;6295345;28;20226;-67
2022/12/26 00:44:26;;;;;;;8.30;3.47;;;;;;;-144.22;100.00;60274.75;6276103;28;20226;-67
2022/12/26 00:47:28;;;;;;;4.60;3.40;;;;;;;-144.22;100.00;60274.75;6276407;28;20594;-67
2022/12/26 00:50:30;;;;;;;4.20;3.30;;;;;;;-144.22;100.00;60274.75;6296546;28;20779;-67
2022/12/26 00:53:35;;;;;;;6.27;3.70;;;;;;;-144.22;100.00;60274.75;6294417;28;20231;-67
2022/12/26 00:56:38;;;;;;;4.07;3.40;;;;;;;-144.22;100.00;60274.75;6295522;28;20234;-67
2022/12/26 00:59:40;;;;;;;4.17;3.30;;;;;;;-144.22;100.00;60274.75;6279839;28;20219;-67
2022/12/26 01:02:42;;;;;;;3.57;2.80;;;;;;;-144.22;100.00;60274.75;6282406;28;20231;-70
2022/12/26 01:05:47;;;;;;;4.97;3.80;;;;;;;-144.22;100.00;60274.75;6276313;28;20232;-67
2022/12/26 01:08:49;;;;;;;4.40;3.10;;;;;;;-144.22;100.00;60274.75;6274557;28;20246;-67
2022/12/26 01:11:51;;;;;;;3.93;3.33;;;;;;;-144.22;100.00;60274.75;6291996;28;20234;-67
2022/12/26 01:14:58;;;;;;;4.07;3.40;;;;;;;-144.22;100.00;60274.75;6292725;28;20253;-67
2022/12/26 01:18:00;;;;;;;4.20;3.13;;;;;;;-144.22;100.00;60274.75;6292795;28;20229;-67
2022/12/26 01:21:07;;;;;;;4.50;3.03;;;;;;;-144.22;100.00;60274.75;6292269;28;20241;-67
2022/12/26 01:24:09;;;;;;;3.93;3.13;;;;;;;-144.22;100.00;60274.75;6292307;28;20416;-67
2022/12/26 01:27:11;;;;;;;4.23;3.10;;;;;;;-144.22;100.00;60274.75;6293159;28;20224;-67
2022/12/26 01:30:14;;;;;;;6.87;3.30;;;;;;;-144.22;100.00;60274.75;6274326;28;20268;-67
2022/12/26 01:33:16;;;;;;;5.70;3.30;;;;;;;-144.22;100.00;60274.75;6295031;28;20283;-67
2022/12/26 01:36:18;;;;;;;2.97;2.67;;;;;;;-144.22;100.00;60274.75;6290641;28;20230;-67
2022/12/26 01:39:20;;;;;;;4.60;3.13;;;;;;;-144.22;100.00;60274.75;6292998;28;20707;-67
2022/12/26 01:42:24;;;;;;;5.70;4.10;;;;;;;-144.22;100.00;60274.75;6273064;28;20353;-67
2022/12/26 01:45:31;;;;;;;3.40;3.10;;;;;;;-144.22;100.00;60274.75;6298035;28;20328;-67
2022/12/26 01:48:33;;;;;;;4.60;3.43;;;;;;;-144.22;100.00;60274.75;6294402;28;20709;-67
2022/12/26 01:51:39;;;;;;;6.00;3.93;;;;;;;-144.22;100.00;60274.75;6272884;28;20229;-67
2022/12/26 01:54:48;;;;;;;5.83;3.47;;;;;;;-144.22;100.00;60274.75;6272410;28;20225;-67
2022/12/26 01:57:59;;;;;;;4.47;3.63;;;;;;;-144.22;100.00;60274.75;6276585;28;20262;-67
2022/12/26 02:01:05;;;;;;;4.77;3.43;;;;;;;-144.22;100.00;60274.75;6274901;28;20239;-67
2022/12/26 02:07:36;;;;;;;6.40;3.53;;;;;;;-144.22;100.00;60274.75;6290262;28;20701;-67
2022/12/26 02:10:47;;;;;;;7.33;4.10;;;;;;;-144.22;100.00;60274.75;6290891;28;20368;-68
2022/12/26 02:13:49;;;;;;;4.70;4.03;;;;;;;-144.22;100.00;60274.75;6291738;28;20229;-67
2022/12/26 02:16:54;;;;;;;7.13;3.90;;;;;;;-144.22;100.00;60274.75;6291363;28;20715;-67
2022/12/26 02:20:08;;;;;;;3.97;3.23;;;;;;;-144.22;100.00;60274.75;6288554;28;20228;-67
2022/12/26 02:23:27;;;;;;;4.37;3.63;;;;;;;-144.22;100.00;60274.75;6289865;28;20223;-67
2022/12/26 02:26:47;;;;;;;5.40;3.70;;;;;;;-144.22;100.00;60274.75;6277362;28;20249;-67
2022/12/26 02:30:00;;;;;;;4.57;3.63;;;;;;;-144.22;100.00;60274.75;6284044;28;20307;-67
2022/12/26 02:33:38;;;;;;;6.47;4.30;;;;;;;-144.22;100.00;60274.75;6275486;28;20241;-68
2022/12/26 02:37:16;;;;;;;3.37;3.07;;;;;;;-144.22;100.00;60274.75;6276619;28;20230;-67
2022/12/26 02:40:32;;;;;;;5.30;3.40;;;;;;;-144.22;100.00;60274.75;6289511;28;20242;-67
2022/12/26 02:48:23;;;;;;;3.67;3.00;;;;;;;-144.22;100.00;60274.75;6224764;28;20240;-67
2022/12/26 03:13:11;;;;;;;5.60;4.00;;;;;;;-144.22;100.00;60274.75;6221317;28;20226;-67
2022/12/26 03:19:56;;;;;;;4.93;4.03;;;;;;;-144.22;100.00;60274.75;6202847;28;20229;-67
2022/12/26 03:23:12;;;;;;;4.27;3.07;;;;;;;-144.22;100.00;60274.75;6240667;28;20730;-68
2022/12/26 03:33:00;;;;;;;6.03;4.40;;;;;;;-144.22;100.00;60274.75;6292792;28;20225;-67
2022/12/26 03:36:04;;;;;;;6.33;4.77;;;;;;;-144.22;100.00;60274.75;6287842;28;20735;-66
2022/12/26 04:19:23;;;;;;;26.93;15.40;;;;;;;-144.22;100.00;60274.75;6294432;28;20241;-67
2022/12/26 04:46:53;;;;;;;32.60;21.97;;;;;;;-144.22;100.00;60274.75;6295792;28;20697;-67
2022/12/26 04:50:14;;;;;;;49.43;24.47;;;;;;;-144.22;100.00;60274.75;6258881;28;20228;-67
2022/12/26 04:53:17;;;;;;;31.20;21.53;;;;;;;-144.22;100.00;60274.75;6292500;28;20298;-66
2022/12/26 04:56:20;;;;;;;25.37;20.47;;;;;;;-144.22;100.00;60274.75;6288852;28;20798;-67
2022/12/26 04:59:22;;;;;;;31.93;21.23;;;;;;;-144.22;100.00;60274.75;6294113;28;20455;-67
2022/12/26 05:12:30;;;;;;;30.60;21.07;;;;;;;-144.22;100.00;60274.75;6288615;28;20252;-67
2022/12/26 05:28:40;;;;;;;48.37;24.03;;;;;;;-144.22;100.00;60274.75;6272601;28;20245;-66
2022/12/26 05:29:02;;;;;;;24.77;18.07;;;;;;;-144.22;100.00;60274.75;6290252;28;20653;-67
2022/12/26 05:32:04;;;;;;;22.20;17.60;;;;;;;-144.22;100.00;60274.75;6295883;28;20225;-68
2022/12/26 05:35:07;;;;;;;35.87;24.23;;;;;;;-144.22;100.00;60274.75;6276890;28;20222;-67
2022/12/26 05:38:10;;;;;;;25.77;18.60;;;;;;;-144.22;100.00;60274.75;6292626;28;20232;-67
2022/12/26 05:41:12;;;;;;;24.37;18.57;;;;;;;-144.22;100.00;60274.75;6273048;28;20246;-69
2022/12/26 05:44:14;;;;;;;22.20;16.77;;;;;;;-144.22;100.00;60274.75;6293413;28;20224;-67
2022/12/26 05:47:16;;;;;;;23.17;17.10;;;;;;;-144.22;100.00;60274.75;6293481;28;20235;-67
2022/12/26 05:50:18;;;;;;;24.43;17.93;;;;;;;-144.22;100.00;60274.75;6292445;28;20322;-67
2022/12/26 05:53:20;;;;;;;21.67;16.53;;;;;;;-144.22;100.00;60274.75;6292103;28;20236;-67
2022/12/26 05:56:23;;;;;;;23.27;17.53;;;;;;;-144.22;100.00;60274.75;6270729;28;20253;-67
2022/12/26 05:59:25;;;;;;;21.97;16.27;;;;;;;-144.22;100.00;60274.75;6290455;28;20253;-67
2022/12/26 06:02:28;;;;;;;22.33;17.50;;;;;;;-144.22;100.00;60274.75;6291371;28;20229;-67
2022/12/26 06:05:30;;;;;;;18.50;14.87;;;;;;;-144.22;100.00;60274.75;6273963;28;20236;-67
2022/12/26 06:08:33;;;;;;;23.20;16.20;;;;;;;-144.22;100.00;60274.75;6290289;28;20242;-67
2022/12/26 06:11:35;;;;;;;25.17;17.87;;;;;;;-144.22;100.00;60274.75;6273696;28;20241;-67
2022/12/26 06:14:37;;;;;;;24.93;18.13;;;;;;;-144.22;100.00;60274.75;6283932;28;20284;-67
2022/12/26 06:17:39;;;;;;;21.93;16.10;;;;;;;-144.22;100.00;60274.75;6291140;28;20720;-67
2022/12/26 06:20:41;;;;;;;18.63;14.70;;;;;;;-144.22;100.00;60274.75;6271684;28;20590;-67
2022/12/26 06:23:43;;;;;;;18.80;14.97;;;;;;;-144.22;100.00;60274.75;6287924;28;20253;-67
2022/12/26 06:26:45;;;;;;;20.43;15.27;;;;;;;-144.22;100.00;60274.75;6289126;28;20354;-67
2022/12/26 06:29:47;;;;;;;20.97;15.53;;;;;;;-144.22;100.00;60274.75;6251368;28;20688;-67
2022/12/26 06:32:50;;;;;;;19.50;15.20;;;;;;;-144.22;100.00;60274.75;6292545;28;20231;-67
2022/12/26 06:35:53;;;;;;;20.87;15.13;;;;;;;-144.22;100.00;60274.75;6274861;28;20229;-67
2022/12/26 06:38:56;;;;;;;16.70;13.70;;;;;;;-144.22;100.00;60274.75;6287264;28;20227;-67
2022/12/26 06:41:58;;;;;;;18.83;15.30;;;;;;;-144.22;100.00;60274.75;6291054;28;20238;-67
2022/12/26 06:45:01;;;;;;;19.03;14.07;;;;;;;-144.22;100.00;60274.75;6288253;28;20232;-67
2022/12/26 06:48:03;;;;;;;20.33;15.00;;;;;;;-144.22;100.00;60274.75;6286976;28;20242;-68
2022/12/26 06:51:14;;;;;;;18.17;13.17;;;;;;;-144.22;100.00;60274.75;6291429;28;20309;-67
2022/12/26 06:54:17;;;;;;;17.20;12.90;;;;;;;-144.22;100.00;60274.75;6293603;28;20351;-67
2022/12/26 06:57:19;;;;;;;19.83;14.77;;;;;;;-144.22;100.00;60274.75;6270979;28;20348;-68
2022/12/26 07:00:21;;;;;;;21.83;15.63;;;;;;;-144.22;100.00;60274.75;6289837;28;20345;-67
2022/12/26 07:03:25;;;;;;;21.60;15.07;;;;;;;-144.22;100.00;60274.75;6290210;28;20311;-67
2022/12/26 07:06:28;;;;;;;19.30;14.73;;;;;;;-144.22;100.00;60274.75;6290919;28;20243;-68
2022/12/26 07:09:30;;;;;;;20.60;14.97;;;;;;;-144.22;100.00;60274.75;6292028;28;20339;-67
2022/12/26 07:12:34;;;;;;;19.83;15.07;;;;;;;-144.22;100.00;60274.75;6289138;28;20231;-67
2022/12/26 07:15:37;;;;;;;16.87;13.90;;;;;;;-144.22;100.00;60274.75;6289515;28;20227;-67
2022/12/26 07:18:39;;;;;;;20.03;14.37;;;;;;;-144.22;100.00;60274.75;6288726;28;20233;-67
2022/12/26 07:21:42;;;;;;;23.53;16.53;;;;;;;-144.22;100.00;60274.75;6288472;28;20340;-68
2022/12/26 07:24:44;;;;;;;23.27;16.47;;;;;;;-144.22;100.00;60274.75;6288356;28;20575;-67
2022/12/26 07:27:46;;;;;;;22.87;16.70;;;;;;;-144.22;100.00;60274.75;6242791;28;1291702;-67
2022/12/26 07:30:48;;;;;;;28.40;18.47;;;;;;;-144.22;100.00;60274.75;6273009;28;20238;-67
2022/12/26 07:33:52;;;;;;;27.50;17.57;;;;;;;-144.22;100.00;60274.75;6289957;28;20238;-67
2022/12/26 07:36:54;;;;;;;22.47;16.23;;;;;;;-144.22;100.00;60274.75;6288027;28;20234;-67
2022/12/26 07:39:56;;;;;;;23.27;17.43;;;;;;;-144.22;100.00;60274.75;6291776;28;20231;-67
2022/12/26 07:43:00;;;;;;;31.77;17.93;;;;;;;-144.22;100.00;60274.75;6293611;28;20227;-67
2022/12/26 07:46:04;;;;;;;24.57;17.37;;;;;;;-144.22;100.00;60274.75;6294654;28;20264;-67
2022/12/26 07:49:07;;;;;;;21.53;16.43;;;;;;;-144.22;100.00;60274.75;6294777;28;20239;-67
2022/12/26 07:52:09;;;;;;;25.83;18.00;;;;;;;-144.22;100.00;60274.75;6283782;28;20314;-67
2022/12/26 07:55:11;;;;;;;24.23;18.53;;;;;;;-144.22;100.00;60274.75;6300019;28;20747;-67
2022/12/26 07:58:13;;;;;;;25.33;17.63;;;;;;;-144.22;100.00;60274.75;6295993;28;20236;-68
2022/12/26 08:01:16;;;;;;;22.87;16.87;;;;;;;-144.22;100.00;60274.75;6299840;28;20326;-69
2022/12/26 08:04:18;;;;;;;23.77;17.10;;;;;;;-144.22;100.00;60274.75;6292713;28;20226;-67
2022/12/26 08:07:20;;;;;;;20.13;15.63;;;;;;;-144.22;100.00;60274.75;6294156;28;20237;-67
2022/12/26 08:10:22;;;;;;;23.77;18.83;;;;;;;-144.22;100.00;60274.75;6279353;28;21370;-67
2022/12/26 08:13:24;;;;;;;24.87;18.60;;;;;;;-144.22;100.00;60274.75;6280977;28;20271;-67
2022/12/26 08:16:26;;;;;;;19.80;15.90;;;;;;;-144.22;100.00;60274.75;6295277;28;20223;-67
2022/12/26 08:19:28;;;;;;;22.60;17.43;;;;;;;-144.22;100.00;60274.75;6294028;28;20785;-68
2022/12/26 08:22:30;;;;;;;18.90;14.90;;;;;;;-144.22;100.00;60274.75;6294261;28;20231;-67
2022/12/26 08:25:32;;;;;;;19.37;14.80;;;;;;;-144.22;100.00;60274.75;6292167;28;20922;-67
2022/12/26 08:28:35;;;;;;;21.43;16.53;;;;;;;-144.22;100.00;60274.75;6292126;28;20228;-68
2022/12/26 08:31:37;;;;;;;18.73;15.07;;;;;;;-144.22;100.00;60274.75;6293449;28;20218;-67
2022/12/26 08:34:39;;;;;;;16.20;13.33;;;;;;;-144.22;100.00;60274.75;6293494;28;20631;-67
2022/12/26 08:37:42;;;;;;;19.57;14.70;;;;;;;-144.22;100.00;60274.75;6276270;28;20265;-68
2022/12/26 08:40:44;;;;;;;17.87;15.13;;;;;;;-144.22;100.00;60274.75;6291586;28;20248;-67
2022/12/26 08:43:50;;;;;;;16.60;14.23;;;;;;;-144.22;100.00;60274.75;6273843;28;20226;-67
2022/12/26 08:47:13;;;;;;;17.40;14.53;;;;;;;-144.22;100.00;60274.75;6292163;28;20230;-69
2022/12/26 08:50:16;;;;;;;18.50;14.53;;;;;;;-144.22;100.00;60274.75;6294056;28;20238;-67
2022/12/26 08:53:18;;;;;;;15.77;13.70;;;;;;;-144.22;100.00;60274.75;6258632;28;20305;-67
2022/12/26 08:56:23;;;;;;;17.67;14.07;;;;;;;-144.22;100.00;60274.75;6289407;28;20225;-67
2022/12/26 08:59:25;;;;;;;14.50;12.40;;;;;;;-144.22;100.00;60274.75;6275246;28;20609;-67
2022/12/26 09:02:28;;;;;;;14.37;12.43;;;;;;;-144.22;100.00;60274.75;6289715;28;20241;-67
2022/12/26 09:05:31;;;;;;;14.00;11.87;;;;;;;-144.22;100.00;60274.75;6292068;28;20226;-67
2022/12/26 09:08:34;;;;;;;15.63;13.03;;;;;;;-144.22;100.00;60274.75;6274380;28;20653;-67
2022/12/26 09:11:37;;;;;;;14.43;12.30;;;;;;;-144.22;100.00;60274.75;6291558;28;20260;-68
2022/12/26 09:14:39;;;;;;;15.20;11.50;;;;;;;-144.22;100.00;60274.75;6276016;28;20236;-67
2022/12/26 09:17:42;;;;;;;12.00;10.73;;;;;;;-144.22;100.00;60274.75;6292804;28;20230;-67
2022/12/26 09:20:44;;;;;;;13.70;10.97;;;;;;;-144.22;100.00;60274.75;6291982;28;20226;-67
2022/12/26 09:23:46;;;;;;;12.53;10.57;;;;;;;-144.22;100.00;60274.75;6287756;28;20223;-67
2022/12/26 09:26:48;;;;;;;12.27;9.50;;;;;;;-144.22;100.00;60274.75;6289232;28;20329;-67
2022/12/26 09:29:50;;;;;;;11.13;10.00;;;;;;;-144.22;100.00;60274.75;6275032;28;20273;-67
2022/12/26 09:32:52;;;;;;;10.60;9.10;;;;;;;-144.22;100.00;60274.75;6257552;28;20755;-67
2022/12/26 09:35:55;;;;;;;11.23;9.30;;;;;;;-144.22;100.00;60274.75;6292095;28;20249;-67
2022/12/26 09:39:05;;;;;;;9.57;8.13;;;;;;;-144.22;100.00;60274.75;6297865;28;20224;-67
2022/12/26 09:42:25;;;;;;;9.57;7.87;;;;;;;-144.22;100.00;60274.75;6296780;28;20213;-67
2022/12/26 09:46:05;;;;;;;10.00;7.93;;;;;;;-144.22;100.00;60274.75;6293909;28;20617;-68
2022/12/26 09:49:26;;;;;;;9.20;7.63;;;;;;;-144.22;100.00;60274.75;6303557;28;20293;-67
2022/12/26 09:52:40;;;;;;;8.60;7.70;;;;;;;-144.22;100.00;60274.75;6291980;28;20313;-67
2022/12/26 09:55:55;;;;;;;7.80;6.70;;;;;;;-144.22;100.00;60274.75;6288922;28;20323;-67
2022/12/26 09:59:06;;;;;;;7.40;6.03;;;;;;;-144.22;100.00;60274.75;6286540;28;20225;-67
2022/12/26 10:02:16;;;;;;;8.20;6.73;;;;;;;-144.22;100.00;60274.75;6271647;28;20226;-67
2022/12/26 10:05:35;;;;;;;10.07;6.80;;;;;;;-144.22;100.00;60274.75;6285758;28;20229;-67
2022/12/26 10:08:49;;;;;;;11.27;6.73;;;;;;;-144.22;100.00;60274.75;6293619;28;20609;-67
2022/12/26 10:12:04;;;;;;;6.90;5.67;;;;;;;-144.22;100.00;60274.75;6278044;28;20266;-67
2022/12/26 10:15:41;;;;;;;6.90;5.60;;;;;;;-144.22;100.00;60274.75;6272216;28;20230;-69
2022/12/26 10:19:00;;;;;;;5.33;4.83;;;;;;;-144.22;100.00;60274.75;6217090;28;20237;-67
2022/12/26 10:22:05;;;;;;;5.50;4.83;;;;;;;-144.22;100.00;60274.75;6272634;28;20378;-67
2022/12/26 10:25:19;;;;;;;8.83;5.07;;;;;;;-144.22;100.00;60274.75;6294135;28;20571;-67
2022/12/26 10:28:27;;;;;;;5.43;4.10;;;;;;;-144.22;100.00;60274.75;6289950;28;20233;-67
2022/12/26 10:31:50;;;;;;;5.30;3.63;;;;;;;-144.22;100.00;60274.75;6299120;28;20233;-67
2022/12/26 10:34:53;;;;;;;5.07;4.13;;;;;;;-144.22;100.00;60274.75;6292430;28;20432;-67
2022/12/26 10:38:02;;;;;;;5.20;3.70;;;;;;;-144.22;100.00;60274.75;6273718;28;20701;-68
2022/12/26 10:41:26;;;;;;;4.63;3.60;;;;;;;-144.22;100.00;60274.75;6289399;28;20369;-67
2022/12/26 10:44:29;;;;;;;4.67;3.90;;;;;;;-144.22;100.00;60274.75;6273121;28;20316;-67
2022/12/26 10:47:38;;;;;;;3.97;3.37;;;;;;;-144.22;100.00;60274.75;6285902;28;20234;-67
2022/12/26 10:50:46;;;;;;;5.33;3.37;;;;;;;-144.22;100.00;60274.75;6278809;28;20310;-67
2022/12/26 10:53:52;;;;;;;4.93;3.20;;;;;;;-144.22;100.00;60274.75;6272059;28;20239;-67
2022/12/26 10:56:57;;;;;;;4.73;3.10;;;;;;;-144.22;100.00;60274.75;6276259;28;20237;-68
2022/12/26 11:00:01;;;;;;;3.50;3.20;;;;;;;-144.22;100.00;60274.75;6290475;28;20363;-70
2022/12/26 11:03:13;;;;;;;3.60;3.20;;;;;;;-144.22;100.00;60274.75;6288408;28;20714;-67
2022/12/26 11:06:18;;;;;;;3.40;3.10;;;;;;;-144.22;100.00;60274.75;6260362;28;20215;-67
2022/12/26 11:09:42;;;;;;;4.83;2.87;;;;;;;-144.22;100.00;60274.75;6270082;28;20280;-68
2022/12/26 11:13:06;;;;;;;3.17;2.30;;;;;;;-144.22;100.00;60274.75;6289293;28;20223;-67
2022/12/26 11:16:09;;;;;;;2.60;2.40;;;;;;;-144.22;100.00;60274.75;6289934;28;20226;-67
2022/12/26 11:19:26;;;;;;;3.17;2.37;;;;;;;-144.22;100.00;60274.75;6271320;28;20227;-68
2022/12/26 11:22:29;;;;;;;4.87;2.60;;;;;;;-144.22;100.00;60274.75;6288606;28;20648;-67
2022/12/26 11:25:33;;;;;;;2.90;2.47;;;;;;;-144.22;100.00;60274.75;6275201;28;20265;-67
2022/12/26 11:28:36;;;;;;;5.17;3.50;;;;;;;-144.22;100.00;60274.75;6271885;28;20239;-67
2022/12/26 11:31:58;;;;;;;4.37;3.97;;;;;;;-144.22;100.00;60274.75;6274049;28;20233;-67
2022/12/26 11:35:02;;;;;;;6.93;5.63;;;;;;;-144.22;100.00;60274.75;6283187;28;20239;-67
2022/12/26 11:38:12;;;;;;;7.33;5.50;;;;;;;-144.22;100.00;60274.75;6281568;28;20311;-67
2022/12/26 11:41:30;;;;;;;8.60;6.87;;;;;;;-144.22;100.00;60274.75;6288819;28;20297;-67
2022/12/26 11:44:39;;;;;;;7.13;6.40;;;;;;;-144.22;100.00;60274.75;6287008;28;20315;-67
2022/12/26 11:47:44;;;;;;;9.73;7.60;;;;;;;-144.22;100.00;60274.75;6288806;28;20708;-70
2022/12/26 11:50:47;;;;;;;7.97;7.17;;;;;;;-144.22;100.00;60274.75;6274637;28;20232;-66
2022/12/26 11:53:49;;;;;;;10.43;8.60;;;;;;;-144.22;100.00;60274.75;6272605;28;20236;-67
2022/12/26 11:57:15;;;;;;;11.63;9.73;;;;;;;-144.22;100.00;60274.75;6288065;28;20314;-67
2022/12/26 12:00:23;;;;;;;11.70;10.17;;;;;;;-144.22;100.00;60274.75;6274394;28;20241;-67
2022/12/26 12:03:34;;;;;;;13.73;11.57;;;;;;;-144.22;100.00;60274.75;6286651;28;20257;-67
2022/12/26 12:06:49;;;;;;;14.17;11.37;;;;;;;-144.22;100.00;60274.75;6288090;28;20308;-67
2022/12/26 12:10:00;;;;;;;12.80;11.43;;;;;;;-144.22;100.00;60274.75;6288253;28;20711;-67
2022/12/26 12:13:13;;;;;;;13.30;11.40;;;;;;;-144.22;100.00;60274.75;6286191;28;20628;-67
2022/12/26 12:16:34;;;;;;;13.50;11.53;;;;;;;-144.22;100.00;60274.75;6287474;28;20231;-67
2022/12/26 12:19:51;;;;;;;14.03;12.57;;;;;;;-144.22;100.00;60274.75;6291365;28;20279;-67
2022/12/26 12:23:05;;;;;;;13.83;11.70;;;;;;;-144.22;100.00;60274.75;6290150;28;20241;-67
2022/12/26 12:26:22;;;;;;;14.40;11.63;;;;;;;-144.22;100.00;60274.75;6272595;28;20703;-67
2022/12/26 12:29:27;;;;;;;14.27;11.53;;;;;;;-144.22;100.00;60274.75;6292438;28;20238;-67
2022/12/26 12:32:41;;;;;;;11.10;9.93;;;;;;;-144.22;100.00;60274.75;6278493;28;20222;-67
2022/12/26 12:35:49;;;;;;;11.20;9.53;;;;;;;-144.22;100.00;60274.75;6260391;28;20232;-68
2022/12/26 12:39:09;;;;;;;11.47;10.23;;;;;;;-144.22;100.00;60274.75;6292656;28;20229;-66
2022/12/26 12:42:40;;;;;;;11.30;9.33;;;;;;;-144.22;100.00;60274.75;6292060;28;20230;-67
2022/12/26 12:45:48;;;;;;;12.13;10.00;;;;;;;-144.22;100.00;60274.75;6294875;28;20229;-68
2022/12/26 12:49:18;;;;;;;16.23;12.13;;;;;;;-144.22;100.00;60274.75;6270703;28;20241;-68
2022/12/26 12:52:35;;;;;;;16.13;13.47;;;;;;;-144.22;100.00;60274.75;6289170;28;20304;-67
2022/12/26 12:56:19;;;;;;;18.30;15.63;;;;;;;-144.22;100.00;60274.75;6298087;28;20316;-67
2022/12/26 12:59:24;;;;;;;17.63;15.00;;;;;;;-144.22;100.00;60274.75;6245363;28;20564;-67
2022/12/26 13:02:43;;;;;;;18.53;15.23;;;;;;;-144.22;100.00;60274.75;6292507;28;20238;-68
2022/12/26 13:06:02;;;;;;;19.70;15.83;;;;;;;-144.22;100.00;60274.75;6275215;28;20573;-67
2022/12/26 13:09:19;;;;;;;18.83;16.13;;;;;;;-144.22;100.00;60274.75;6280191;28;20280;-67
2022/12/26 13:12:31;;;;;;;18.00;14.33;;;;;;;-144.22;100.00;60274.75;6278224;28;20648;-67
2022/12/26 13:15:45;;;;;;;20.10;15.93;;;;;;;-144.22;100.00;60274.75;6275576;28;20227;-67
2022/12/26 13:18:56;;;;;;;20.00;16.77;;;;;;;-144.22;100.00;60274.75;6270504;28;20218;-67
2022/12/26 13:22:05;;;;;;;17.13;14.93;;;;;;;-144.22;100.00;60274.75;6289435;28;20638;-67
2022/12/26 13:25:10;;;;;;;17.30;14.73;;;;;;;-144.22;100.00;60274.75;6291409;28;20232;-66
2022/12/26 13:28:24;;;;;;;19.83;16.70;;;;;;;-144.22;100.00;60274.75;6291374;28;20542;-67
2022/12/26 13:31:32;;;;;;;19.50;15.47;;;;;;;-144.22;100.00;60274.75;6290880;28;20380;-67
2022/12/26 13:34:35;;;;;;;21.13;16.77;;;;;;;-144.22;100.00;60274.75;6291811;28;20226;-67
2022/12/26 13:37:37;;;;;;;16.07;14.37;;;;;;;-144.22;100.00;60274.75;6290357;28;20829;-67
2022/12/26 13:40:46;;;;;;;15.43;13.83;;;;;;;-144.22;100.00;60274.75;6292525;28;20597;-67
2022/12/26 13:44:21;;;;;;;18.20;15.23;;;;;;;-144.22;100.00;60274.75;6287471;28;20231;-67
2022/12/26 13:47:38;;;;;;;17.33;14.93;;;;;;;-144.22;100.00;60274.75;6191378;28;20243;-67
2022/12/26 13:50:52;;;;;;;16.27;13.37;;;;;;;-144.22;100.00;60274.75;6194146;28;20243;-67
2022/12/26 13:54:08;;;;;;;16.23;13.70;;;;;;;-144.22;100.00;60274.75;6173300;28;20239;-67
2022/12/26 13:57:26;;;;;;;21.63;17.57;;;;;;;-144.22;100.00;60274.75;6188753;28;20231;-67
2022/12/26 14:00:49;;;;;;;18.87;15.60;;;;;;;-144.22;100.00;60274.75;6190792;28;20758;-67
2022/12/26 14:04:06;;;;;;;20.60;16.07;;;;;;;-144.22;100.00;60274.75;6190116;28;20436;-67
2022/12/26 14:07:22;;;;;;;17.33;15.37;;;;;;;-144.22;100.00;60274.75;6188682;28;20234;-67
2022/12/26 14:10:54;;;;;;;20.37;15.70;;;;;;;-144.22;100.00;60274.75;6190524;28;20324;-67
2022/12/26 14:14:37;;;;;;;17.07;13.87;;;;;;;-144.22;100.00;60274.75;6172046;28;20848;-67
2022/12/26 14:17:58;;;;;;;18.63;15.80;;;;;;;-144.22;100.00;60274.75;6144359;28;20322;-67
2022/12/26 14:21:29;;;;;;;18.37;14.23;;;;;;;-144.22;100.00;60274.75;6188837;28;20332;-67
2022/12/26 14:24:56;;;;;;;15.53;13.67;;;;;;;12.15;100.00;98060.50;6276935;28;20229;-67
2022/12/26 14:28:26;;;;;;;15.03;13.40;;;;;;;12.15;100.00;98060.50;6276305;28;20232;-67
2022/12/26 14:31:34;;;;;;;15.00;12.97;;;;;;;12.15;100.00;98060.50;6292936;28;20243;-68
2022/12/26 14:34:49;;;;;;;13.87;12.47;;;;;;;12.15;100.00;98060.50;6293113;28;20739;-67
2022/12/26 14:38:00;;;;;;;15.30;11.83;;;;;;;12.15;100.00;98058.03;6287675;28;20228;-67
2022/12/26 14:43:09;;;;;;;13.83;12.10;;;;;;;-144.22;100.00;60274.75;6286662;28;20691;-67
2022/12/26 14:44:52;;;;;;;13.60;12.10;;;;;;;-144.22;100.00;60274.75;6290045;28;20668;-67
2022/12/26 14:47:55;;;;;;;13.23;11.43;;;;;;;-144.22;100.00;60274.75;6287592;28;20225;-67
2022/12/26 14:51:03;;;;;;;13.80;11.83;;;;;;;8.44;100.00;78872.03;6285641;28;20214;-67
2022/12/26 14:54:32;;;;;;;14.03;11.60;;;;;;;8.29;100.00;78856.00;6289876;28;20229;-67
2022/12/26 14:57:40;;;;;;;14.30;12.80;;;;;;;8.18;100.00;78916.06;6288527;28;20725;-67
2022/12/26 15:00:42;;;;;;;17.93;14.53;;;;;;;8.07;100.00;60274.75;6286343;28;20252;-69
2022/12/26 15:04:07;;;;;;;11.77;10.57;;;;;;;-144.22;100.00;60274.75;6290329;28;20226;-67
2022/12/26 15:07:25;;;;;;;13.13;11.40;;;;;;;7.99;100.00;78811.97;6276400;28;20226;-67
2022/12/26 15:10:39;;;;;;;12.60;10.03;;;;;;;-144.22;100.00;60274.75;6256328;28;20239;-67
2022/12/26 15:14:18;;;;;;;14.93;11.60;;;;;;;7.89;100.00;78797.66;6271396;28;20233;-67
2022/12/26 15:17:41;;;;;;;15.70;10.97;;;;;;;-144.22;100.00;60274.75;6287455;28;20308;-67
2022/12/26 15:21:01;;;;;;;12.50;11.20;;;;;;;-144.22;100.00;60274.75;6258200;28;20272;-67
2022/12/26 15:24:09;;;;;;;13.60;12.20;;;;;;;-144.22;100.00;60274.75;6289608;28;20709;-67
2022/12/26 15:27:30;;;;;;;12.43;10.43;;;;;;;7.38;100.00;60274.75;6289274;28;20792;-69
2022/12/26 15:31:02;;;;;;;13.00;11.17;;;;;;;7.29;100.00;60274.75;6275470;28;20296;-67
2022/12/26 15:34:10;;;;;;;16.70;12.97;;;;;;;-144.22;100.00;60274.75;6279223;28;20230;-67
2022/12/26 15:37:31;;;;;;;13.43;11.70;;;;;;;-144.22;100.00;60274.75;6292326;28;20230;-68
2022/12/26 15:41:16;;;;;;;13.13;11.23;;;;;;;6.99;100.00;78678.69;6289801;28;20241;-67
2022/12/26 15:44:34;;;;;;;15.37;11.43;;;;;;;-144.22;100.00;60274.75;6258569;28;20702;-67
2022/12/26 15:47:48;;;;;;;15.20;12.50;;;;;;;7.14;100.00;60274.75;6261546;28;20702;-68
2022/12/26 15:50:56;;;;;;;14.03;11.97;;;;;;;6.82;100.00;78697.78;6288074;28;20640;-67
2022/12/26 15:54:21;;;;;;;13.13;10.93;;;;;;;6.70;100.00;60274.75;6289798;28;20246;-67
2022/12/26 15:57:30;;;;;;;16.50;12.40;;;;;;;6.61;100.00;60274.75;6294303;28;20281;-67
2022/12/26 16:00:38;;;;;;;14.03;10.93;;;;;;;6.57;100.00;60274.75;6293934;28;20435;-67
2022/12/26 16:03:52;;;;;;;14.77;10.47;;;;;;;-144.22;100.00;60274.75;6277407;28;20229;-67
2022/12/26 16:07:13;;;;;;;13.00;10.03;;;;;;;6.46;100.00;60274.75;6293921;28;20222;-68
2022/12/26 16:10:24;;;;;;;11.03;8.90;;;;;;;-144.22;100.00;60274.75;6294300;28;20245;-67
2022/12/26 16:13:26;;;;;;;14.40;9.53;;;;;;;-144.22;100.00;60274.75;6293079;28;20223;-67
2022/12/26 16:16:33;;;;;;;11.03;8.80;;;;;;;6.38;100.00;60274.75;6294717;28;20563;-67